createdAt,value
2019-04-14T00:02:55.476Z,100285.28
2019-04-14T00:08:00.347Z,100287.91
2019-04-14T00:13:05.130Z,100275.71
2019-04-14T00:18:09.744Z,100281.41
2019-04-14T00:23:15.158Z,100280.50
2019-04-14T00:28:20.649Z,100273.94
2019-04-14T00:33:28.022Z,100275.69
2019-04-14T00:38:34.613Z,100281.75
2019-04-14T00:43:49.227Z,100283.48
2019-04-14T00:48:54.025Z,100271.27
2019-04-14T00:54:00.215Z,100276.93
2019-04-14T00:59:07.029Z,100270.34
2019-04-14T01:04:12.238Z,100263.36
2019-04-14T01:09:17.250Z,100261.16
2019-04-14T01:14:21.773Z,100262.47
2019-04-14T01:19:26.630Z,100264.20
2019-04-14T01:24:31.568Z,100256.76
2019-04-14T01:29:36.319Z,100258.97
2019-04-14T01:34:41.764Z,100256.77
2019-04-14T01:39:46.275Z,100252.00
2019-04-14T01:44:50.725Z,100248.50
2019-04-14T01:49:55.247Z,100258.09
2019-04-14T01:55:17.754Z,100259.41
2019-04-14T02:00:44.413Z,100262.02
2019-04-14T02:05:49.605Z,100255.92
2019-04-14T02:10:54.429Z,100254.17
2019-04-14T02:16:12.849Z,100245.89
2019-04-14T02:21:06.356Z,100249.38
2019-04-14T02:26:11.290Z,100245.45
2019-04-14T02:31:39.399Z,100252.87
2019-04-14T02:36:47.941Z,100256.80
2019-04-14T02:42:06.862Z,100257.67
2019-04-14T02:47:12.356Z,100258.08
2019-04-14T02:52:13.933Z,100250.25
2019-04-14T02:57:19.975Z,100253.70
2019-04-14T03:07:30.264Z,100256.70
2019-04-14T03:12:34.680Z,100254.06
2019-04-14T03:18:20.488Z,100251.44
2019-04-14T03:23:14.943Z,100263.13
2019-04-14T03:28:27.718Z,100254.40
2019-04-14T03:38:50.243Z,100266.58
2019-04-14T03:43:38.791Z,100263.92
2019-04-14T03:53:55.955Z,100266.51
2019-04-14T03:58:35.744Z,100260.39
2019-04-14T04:03:41.357Z,100262.05
2019-04-14T04:08:46.442Z,100264.28
2019-04-14T04:13:52.000Z,100266.38
2019-04-14T04:19:05.655Z,100260.28
2019-04-14T04:24:12.870Z,100260.27
2019-04-14T04:29:22.334Z,100264.58
2019-04-14T04:34:31.652Z,100270.64
2019-04-14T04:39:38.659Z,100271.03
2019-04-14T04:44:44.218Z,100273.11
2019-04-14T04:49:49.049Z,100276.54
2019-04-14T04:54:53.858Z,100276.45
2019-04-14T04:59:58.409Z,100273.73
2019-04-14T05:05:03.573Z,100276.27
2019-04-14T05:10:13.185Z,100280.50
2019-04-14T05:15:20.484Z,100283.45
2019-04-14T05:20:25.124Z,100284.69
2019-04-14T05:25:29.744Z,100287.20
2019-04-14T05:30:35.005Z,100290.60
2019-04-14T05:35:40.136Z,100296.17
2019-04-14T05:40:45.085Z,100303.89
2019-04-14T05:45:50.168Z,100302.94
2019-04-14T05:50:55.497Z,100305.06
2019-04-14T05:55:59.980Z,100302.30
2019-04-14T06:01:04.861Z,100300.05
2019-04-14T06:06:09.265Z,100304.27
2019-04-14T06:11:13.909Z,100307.63
2019-04-14T06:16:18.413Z,100312.26
2019-04-14T06:21:23.031Z,100307.00
2019-04-14T06:26:27.523Z,100310.41
2019-04-14T06:31:45.822Z,100305.09
2019-04-14T06:36:52.963Z,100302.66
2019-04-14T06:41:57.506Z,100302.61
2019-04-14T06:47:02.259Z,100307.53
2019-04-14T06:52:08.042Z,100316.17
2019-04-14T06:57:12.637Z,100314.24
2019-04-14T07:02:17.096Z,100323.83
2019-04-14T07:07:21.724Z,100324.55
2019-04-14T07:12:27.956Z,100330.73
2019-04-14T07:17:32.405Z,100337.75
2019-04-14T07:22:37.055Z,100333.51
2019-04-14T07:27:41.528Z,100335.23
2019-04-14T07:32:50.420Z,100336.33
2019-04-14T07:37:56.647Z,100337.64
2019-04-14T07:43:05.840Z,100339.86
2019-04-14T07:48:12.032Z,100343.77
2019-04-14T07:53:26.992Z,100342.80
2019-04-14T07:58:33.111Z,100347.42
2019-04-14T08:03:41.250Z,100351.02
2019-04-14T08:08:45.785Z,100346.97
2019-04-14T08:13:50.365Z,100355.80
2019-04-14T08:18:55.022Z,100358.77
2019-04-14T08:23:59.524Z,100361.59
2019-04-14T08:29:04.137Z,100362.27
2019-04-14T08:34:08.545Z,100357.81
2019-04-14T08:39:13.052Z,100365.77
2019-04-14T08:44:31.082Z,100366.54
2019-04-14T08:49:49.304Z,100375.86
2019-04-14T08:54:55.395Z,100377.83
2019-04-14T09:00:18.056Z,100385.23
2019-04-14T09:05:40.522Z,100365.27
2019-04-14T09:11:02.062Z,100377.23
2019-04-14T09:16:06.581Z,100376.86
2019-04-14T09:21:11.138Z,100380.52
2019-04-14T09:26:15.724Z,100387.55
2019-04-14T09:31:20.199Z,100370.27
2019-04-14T09:36:24.684Z,100374.95
2019-04-14T09:41:29.236Z,100374.30
2019-04-14T09:46:34.769Z,100376.50
2019-04-14T09:51:39.408Z,100374.20
2019-04-14T09:56:44.047Z,100377.77
2019-04-14T10:01:48.735Z,100377.45
2019-04-14T10:06:53.304Z,100377.17
2019-04-14T10:11:57.839Z,100372.44
2019-04-14T10:17:02.427Z,100368.72
2019-04-14T10:22:07.897Z,100364.55
2019-04-14T10:27:14.815Z,100371.73
2019-04-14T10:32:19.270Z,100364.77
2019-04-14T10:37:23.877Z,100364.19
2019-04-14T10:42:28.476Z,100343.42
2019-04-14T10:47:33.081Z,100343.42
2019-04-14T10:52:37.618Z,100358.45
2019-04-14T10:57:42.083Z,100357.82
2019-04-14T11:02:46.733Z,100360.08
2019-04-14T11:07:51.302Z,100354.24
2019-04-14T11:12:56.850Z,100359.15
2019-04-14T11:18:01.368Z,100353.79
2019-04-14T11:23:05.897Z,100349.47
2019-04-14T11:28:10.485Z,100363.97
2019-04-14T11:33:16.728Z,100357.07
2019-04-14T11:38:28.369Z,100360.89
2019-04-14T11:43:33.109Z,100363.05
2019-04-14T11:48:37.637Z,100354.85
2019-04-14T11:53:42.331Z,100346.64
2019-04-14T11:58:46.935Z,100347.23
2019-04-14T12:03:53.133Z,100357.30
2019-04-14T12:09:17.819Z,100350.64
2019-04-14T12:14:22.293Z,100348.90
2019-04-14T12:19:26.836Z,100355.36
2019-04-14T12:24:31.441Z,100370.62
2019-04-14T12:29:36.888Z,100354.75
2019-04-14T12:34:41.539Z,100355.77
2019-04-14T12:39:47.211Z,100348.35
2019-04-14T12:44:56.053Z,100329.10
2019-04-14T12:50:07.906Z,100336.55
2019-04-14T12:55:13.397Z,100331.39
2019-04-14T13:00:35.568Z,100337.77
2019-04-14T13:05:40.042Z,100337.91
2019-04-14T13:10:44.594Z,100339.41
2019-04-14T13:15:49.067Z,100330.09
2019-04-14T13:20:53.673Z,100327.55
2019-04-14T13:25:58.253Z,100329.41
2019-04-14T13:31:02.776Z,100322.33
2019-04-14T13:36:07.357Z,100318.95
2019-04-14T13:41:12.180Z,100312.30
2019-04-14T13:46:16.793Z,100305.59
2019-04-14T13:51:21.463Z,100306.02
2019-04-14T13:56:26.147Z,100317.19
2019-04-14T14:01:30.816Z,100309.48
2019-04-14T14:06:36.456Z,100314.13
2019-04-14T14:11:54.426Z,100314.80
2019-04-14T14:17:03.143Z,100309.31
2019-04-14T14:22:09.349Z,100311.87
2019-04-14T14:27:14.024Z,100320.35
2019-04-14T14:32:20.451Z,100315.88
2019-04-14T14:37:25.234Z,100320.74
2019-04-14T14:42:29.853Z,100318.89
2019-04-14T14:47:35.704Z,100321.00
2019-04-14T14:52:41.207Z,100323.27
2019-04-14T14:57:45.898Z,100317.58
2019-04-14T15:02:50.702Z,100313.94
2019-04-14T15:07:55.429Z,100316.55
2019-04-14T15:13:01.213Z,100322.43
2019-04-14T15:18:05.946Z,100326.47
2019-04-14T15:23:10.500Z,100332.34
2019-04-14T15:28:15.769Z,100323.03
2019-04-14T15:33:20.650Z,100327.03
2019-04-14T15:38:25.315Z,100337.45
2019-04-14T15:43:30.864Z,100334.69
2019-04-14T15:48:35.433Z,100339.15
2019-04-14T15:53:39.994Z,100341.50
2019-04-14T15:58:46.765Z,100352.80
2019-04-14T16:03:56.046Z,100349.98
2019-04-14T16:09:05.071Z,100357.45
2019-04-14T16:14:12.910Z,100360.86
2019-04-14T16:19:33.914Z,100368.97
2019-04-14T16:24:38.374Z,100372.84
2019-04-14T16:29:47.072Z,100379.02
2019-04-14T16:34:53.343Z,100381.73
2019-04-14T16:39:58.217Z,100384.35
2019-04-14T16:45:03.098Z,100387.28
2019-04-14T16:50:10.507Z,100396.31
2019-04-14T17:00:37.122Z,100408.02
2019-04-14T17:05:41.932Z,100412.33
2019-04-14T17:10:46.499Z,100425.02
2019-04-14T17:16:08.108Z,100431.36
2019-04-14T17:21:20.277Z,100444.19
2019-04-14T17:26:43.639Z,100446.13
2019-04-14T17:31:52.783Z,100460.64
2019-04-14T17:37:07.988Z,100469.31
2019-04-14T17:42:19.161Z,100474.05
2019-04-14T17:47:26.463Z,100480.46
2019-04-14T17:52:39.812Z,100490.21
2019-04-14T17:57:49.271Z,100496.30
2019-04-14T18:02:56.142Z,100503.98
2019-04-14T18:08:02.430Z,100512.95
2019-04-14T18:13:14.304Z,100517.81
2019-04-14T18:18:20.528Z,100526.45
2019-04-14T18:23:26.654Z,100535.52
2019-04-14T18:28:51.771Z,100548.97
2019-04-14T18:34:07.033Z,100559.85
2019-04-14T18:39:29.110Z,100562.97
2019-04-14T18:44:44.338Z,100563.92
2019-04-14T18:49:53.332Z,100574.41
2019-04-14T18:55:08.743Z,100578.58
2019-04-14T19:00:21.188Z,100590.06
2019-04-14T19:05:25.735Z,100593.26
2019-04-14T19:10:30.266Z,100597.77
2019-04-14T19:15:36.724Z,100601.00
2019-04-14T19:20:42.839Z,100608.17
2019-04-14T19:25:47.530Z,100609.77
2019-04-14T19:30:52.988Z,100618.30
2019-04-14T19:35:57.932Z,100616.69
2019-04-14T19:41:02.640Z,100626.17
2019-04-14T19:46:10.056Z,100630.41
2019-04-14T19:51:14.704Z,100635.41
2019-04-14T19:56:19.253Z,100639.55
2019-04-14T20:01:23.845Z,100635.42
2019-04-14T20:06:28.390Z,100638.98
2019-04-14T20:11:34.016Z,100639.45
2019-04-14T20:16:49.384Z,100647.88
2019-04-14T20:22:01.448Z,100642.70
2019-04-14T20:27:07.770Z,100655.11
2019-04-14T20:32:14.158Z,100667.50
2019-04-14T20:37:18.693Z,100659.36
2019-04-14T20:42:23.521Z,100661.70
2019-04-14T20:47:28.109Z,100669.73
2019-04-14T20:52:32.629Z,100666.80
2019-04-14T20:57:37.274Z,100671.80
2019-04-14T21:03:02.668Z,100667.91
2019-04-14T21:08:14.697Z,100682.50
2019-04-14T21:13:33.121Z,100685.28
2019-04-14T21:18:42.285Z,100677.42
2019-04-14T21:24:01.582Z,100681.00
2019-04-14T21:29:11.105Z,100686.75
2019-04-14T21:34:17.364Z,100688.14
2019-04-14T21:39:40.646Z,100692.17
2019-04-14T21:44:44.789Z,100700.13
2019-04-14T21:49:49.214Z,100707.70
2019-04-14T21:54:53.748Z,100709.09
2019-04-14T22:00:05.690Z,100713.06
2019-04-14T22:05:19.219Z,100719.75
2019-04-14T22:10:25.427Z,100716.35
2019-04-14T22:15:29.918Z,100722.06
2019-04-14T22:20:34.349Z,100730.83
2019-04-14T22:25:39.783Z,100727.00
2019-04-14T22:30:44.336Z,100731.46
2019-04-14T22:35:48.827Z,100741.11
2019-04-14T22:40:53.399Z,100742.02
2019-04-14T22:45:57.847Z,100743.89
2019-04-14T22:51:02.402Z,100756.20
2019-04-14T22:56:07.886Z,100748.45
2019-04-14T23:01:14.041Z,100758.55
2019-04-14T23:06:20.202Z,100754.27
2019-04-14T23:11:41.079Z,100751.27
2019-04-14T23:16:47.254Z,100751.75
2019-04-14T23:21:53.389Z,100754.46
2019-04-14T23:26:58.047Z,100753.66
2019-04-14T23:32:02.544Z,100757.69
2019-04-14T23:37:07.139Z,100760.89
2019-04-14T23:42:11.619Z,100757.52
2019-04-14T23:47:16.253Z,100762.35
2019-04-14T23:52:20.758Z,100761.98
2019-04-14T23:57:25.248Z,100765.55
